sensor_id;sensor_type;location;lat;lon;timestamp;P1;durP1;ratioP1;P2;durP2;ratioP2
51995;SDS011;38010;53.264;6.592;2023-04-07T00:00:50;0.68;;;0.68;;
51995;SDS011;38010;53.264;6.592;2023-04-07T00:03:16;1.45;;;1.10;;
51995;SDS011;38010;53.264;6.592;2023-04-07T00:05:42;1.38;;;0.88;;
51995;SDS011;38010;53.264;6.592;2023-04-07T00:08:07;1.55;;;1.05;;
51995;SDS011;38010;53.264;6.592;2023-04-07T00:10:33;1.60;;;0.90;;
51995;SDS011;38010;53.264;6.592;2023-04-07T00:12:59;0.80;;;0.75;;
51995;SDS011;38010;53.264;6.592;2023-04-07T00:15:25;0.70;;;0.70;;
51995;SDS011;38010;53.264;6.592;2023-04-07T00:17:51;0.70;;;0.70;;
51995;SDS011;38010;53.264;6.592;2023-04-07T00:20:16;1.13;;;0.85;;
51995;SDS011;38010;53.264;6.592;2023-04-07T00:22:42;1.10;;;0.90;;
51995;SDS011;38010;53.264;6.592;2023-04-07T00:25:08;1.08;;;0.93;;
51995;SDS011;38010;53.264;6.592;2023-04-07T00:27:34;1.10;;;0.80;;
51995;SDS011;38010;53.264;6.592;2023-04-07T00:30:00;1.08;;;0.95;;
51995;SDS011;38010;53.264;6.592;2023-04-07T00:32:27;1.00;;;0.90;;
51995;SDS011;38010;53.264;6.592;2023-04-07T00:34:52;0.95;;;0.80;;
51995;SDS011;38010;53.264;6.592;2023-04-07T00:37:18;0.70;;;0.70;;
51995;SDS011;38010;53.264;6.592;2023-04-07T00:39:44;1.05;;;0.80;;
51995;SDS011;38010;53.264;6.592;2023-04-07T00:42:10;1.00;;;0.80;;
51995;SDS011;38010;53.264;6.592;2023-04-07T00:44:36;1.08;;;0.90;;
51995;SDS011;38010;53.264;6.592;2023-04-07T00:47:02;0.90;;;0.80;;
51995;SDS011;38010;53.264;6.592;2023-04-07T00:49:28;1.10;;;0.90;;
51995;SDS011;38010;53.264;6.592;2023-04-07T00:51:54;0.75;;;0.73;;
51995;SDS011;38010;53.264;6.592;2023-04-07T00:54:24;1.80;;;1.00;;
51995;SDS011;38010;53.264;6.592;2023-04-07T00:56:51;1.65;;;0.80;;
51995;SDS011;38010;53.264;6.592;2023-04-07T00:59:17;1.00;;;0.80;;
51995;SDS011;38010;53.264;6.592;2023-04-07T01:01:54;1.40;;;0.80;;
51995;SDS011;38010;53.264;6.592;2023-04-07T01:07:26;1.10;;;0.98;;
51995;SDS011;38010;53.264;6.592;2023-04-07T01:10:02;1.23;;;1.05;;
51995;SDS011;38010;53.264;6.592;2023-04-07T01:12:35;1.02;;;0.85;;
51995;SDS011;38010;53.264;6.592;2023-04-07T01:15:09;1.00;;;0.80;;
51995;SDS011;38010;53.264;6.592;2023-04-07T01:17:37;1.02;;;0.93;;
51995;SDS011;38010;53.264;6.592;2023-04-07T01:20:11;1.13;;;1.02;;
51995;SDS011;38010;53.264;6.592;2023-04-07T01:22:46;0.80;;;0.80;;
51995;SDS011;38010;53.264;6.592;2023-04-07T01:25:35;1.25;;;1.00;;
51995;SDS011;38010;53.264;6.592;2023-04-07T01:28:43;1.35;;;1.00;;
51995;SDS011;38010;53.264;6.592;2023-04-07T01:31:35;0.80;;;0.80;;
51995;SDS011;38010;53.264;6.592;2023-04-07T01:34:03;1.58;;;1.10;;
51995;SDS011;38010;53.264;6.592;2023-04-07T01:36:30;0.95;;;0.80;;
51995;SDS011;38010;53.264;6.592;2023-04-07T01:38:58;0.90;;;0.80;;
51995;SDS011;38010;53.264;6.592;2023-04-07T01:41:24;0.70;;;0.70;;
51995;SDS011;38010;53.264;6.592;2023-04-07T01:43:51;0.73;;;0.73;;
51995;SDS011;38010;53.264;6.592;2023-04-07T01:46:19;0.80;;;0.80;;
51995;SDS011;38010;53.264;6.592;2023-04-07T01:48:46;1.23;;;0.95;;
51995;SDS011;38010;53.264;6.592;2023-04-07T01:51:13;0.80;;;0.80;;
51995;SDS011;38010;53.264;6.592;2023-04-07T01:53:45;1.58;;;1.20;;
51995;SDS011;38010;53.264;6.592;2023-04-07T01:56:12;1.98;;;0.80;;
51995;SDS011;38010;53.264;6.592;2023-04-07T01:58:38;1.00;;;0.80;;
51995;SDS011;38010;53.264;6.592;2023-04-07T02:01:04;1.38;;;0.90;;
51995;SDS011;38010;53.264;6.592;2023-04-07T02:03:34;1.25;;;0.80;;
51995;SDS011;38010;53.264;6.592;2023-04-07T02:06:14;0.88;;;0.80;;
51995;SDS011;38010;53.264;6.592;2023-04-07T02:08:44;1.10;;;0.90;;
51995;SDS011;38010;53.264;6.592;2023-04-07T02:11:13;1.20;;;0.82;;
51995;SDS011;38010;53.264;6.592;2023-04-07T02:13:42;0.98;;;0.88;;
51995;SDS011;38010;53.264;6.592;2023-04-07T02:16:10;1.95;;;1.05;;
51995;SDS011;38010;53.264;6.592;2023-04-07T02:18:37;1.13;;;1.00;;
51995;SDS011;38010;53.264;6.592;2023-04-07T02:21:04;0.85;;;0.70;;
51995;SDS011;38010;53.264;6.592;2023-04-07T02:23:33;1.00;;;0.90;;
51995;SDS011;38010;53.264;6.592;2023-04-07T02:26:00;1.10;;;0.98;;
51995;SDS011;38010;53.264;6.592;2023-04-07T02:28:25;1.00;;;0.90;;
51995;SDS011;38010;53.264;6.592;2023-04-07T02:30:51;1.15;;;0.90;;
51995;SDS011;38010;53.264;6.592;2023-04-07T02:33:17;1.00;;;0.90;;
51995;SDS011;38010;53.264;6.592;2023-04-07T02:35:42;1.13;;;0.82;;
51995;SDS011;38010;53.264;6.592;2023-04-07T02:38:08;1.42;;;1.13;;
51995;SDS011;38010;53.264;6.592;2023-04-07T02:40:34;1.15;;;0.93;;
51995;SDS011;38010;53.264;6.592;2023-04-07T02:43:00;1.10;;;1.00;;
51995;SDS011;38010;53.264;6.592;2023-04-07T02:45:26;1.30;;;1.00;;
51995;SDS011;38010;53.264;6.592;2023-04-07T02:47:52;1.23;;;0.90;;
51995;SDS011;38010;53.264;6.592;2023-04-07T02:50:18;1.00;;;0.90;;
51995;SDS011;38010;53.264;6.592;2023-04-07T02:52:43;1.50;;;1.13;;
51995;SDS011;38010;53.264;6.592;2023-04-07T02:55:09;0.75;;;0.73;;
51995;SDS011;38010;53.264;6.592;2023-04-07T02:57:35;1.27;;;1.13;;
51995;SDS011;38010;53.264;6.592;2023-04-07T03:00:01;1.30;;;1.10;;
51995;SDS011;38010;53.264;6.592;2023-04-07T03:02:26;0.90;;;0.80;;
51995;SDS011;38010;53.264;6.592;2023-04-07T03:04:52;1.05;;;0.90;;
51995;SDS011;38010;53.264;6.592;2023-04-07T03:07:18;1.45;;;1.00;;
51995;SDS011;38010;53.264;6.592;2023-04-07T03:09:44;0.88;;;0.85;;
51995;SDS011;38010;53.264;6.592;2023-04-07T03:12:10;0.90;;;0.80;;
51995;SDS011;38010;53.264;6.592;2023-04-07T03:14:35;1.48;;;1.00;;
51995;SDS011;38010;53.264;6.592;2023-04-07T03:17:02;1.33;;;1.02;;
51995;SDS011;38010;53.264;6.592;2023-04-07T03:19:28;0.98;;;0.90;;
51995;SDS011;38010;53.264;6.592;2023-04-07T03:21:54;1.70;;;1.02;;
51995;SDS011;38010;53.264;6.592;2023-04-07T03:24:20;1.23;;;1.10;;
51995;SDS011;38010;53.264;6.592;2023-04-07T03:26:45;1.02;;;0.90;;
51995;SDS011;38010;53.264;6.592;2023-04-07T03:29:11;1.50;;;1.10;;
51995;SDS011;38010;53.264;6.592;2023-04-07T03:31:37;1.58;;;1.10;;
51995;SDS011;38010;53.264;6.592;2023-04-07T03:34:03;1.52;;;1.00;;
51995;SDS011;38010;53.264;6.592;2023-04-07T03:36:29;1.10;;;0.90;;
51995;SDS011;38010;53.264;6.592;2023-04-07T03:38:56;1.30;;;0.98;;
51995;SDS011;38010;53.264;6.592;2023-04-07T03:41:21;1.25;;;1.00;;
51995;SDS011;38010;53.264;6.592;2023-04-07T03:43:47;1.00;;;0.90;;
51995;SDS011;38010;53.264;6.592;2023-04-07T03:46:13;1.38;;;0.93;;
51995;SDS011;38010;53.264;6.592;2023-04-07T03:48:39;1.20;;;0.90;;
51995;SDS011;38010;53.264;6.592;2023-04-07T03:51:05;0.95;;;0.82;;
51995;SDS011;38010;53.264;6.592;2023-04-07T03:53:31;1.48;;;1.17;;
51995;SDS011;38010;53.264;6.592;2023-04-07T03:55:57;1.48;;;1.10;;
51995;SDS011;38010;53.264;6.592;2023-04-07T03:58:23;1.15;;;1.00;;
51995;SDS011;38010;53.264;6.592;2023-04-07T04:00:48;1.02;;;0.93;;
51995;SDS011;38010;53.264;6.592;2023-04-07T04:03:14;1.10;;;1.00;;
51995;SDS011;38010;53.264;6.592;2023-04-07T04:05:40;0.90;;;0.90;;
51995;SDS011;38010;53.264;6.592;2023-04-07T04:08:06;0.77;;;0.70;;
51995;SDS011;38010;53.264;6.592;2023-04-07T04:10:32;0.93;;;0.82;;
51995;SDS011;38010;53.264;6.592;2023-04-07T04:12:57;0.93;;;0.85;;
51995;SDS011;38010;53.264;6.592;2023-04-07T04:15:28;1.25;;;0.90;;
51995;SDS011;38010;53.264;6.592;2023-04-07T04:17:53;0.88;;;0.82;;
51995;SDS011;38010;53.264;6.592;2023-04-07T04:20:19;1.08;;;0.98;;
51995;SDS011;38010;53.264;6.592;2023-04-07T04:22:46;1.23;;;1.00;;
51995;SDS011;38010;53.264;6.592;2023-04-07T04:25:11;0.80;;;0.80;;
51995;SDS011;38010;53.264;6.592;2023-04-07T04:27:37;1.33;;;1.13;;
51995;SDS011;38010;53.264;6.592;2023-04-07T04:30:03;1.05;;;0.95;;
51995;SDS011;38010;53.264;6.592;2023-04-07T04:32:29;1.17;;;1.00;;
51995;SDS011;38010;53.264;6.592;2023-04-07T04:34:55;0.98;;;0.88;;
51995;SDS011;38010;53.264;6.592;2023-04-07T04:37:20;0.95;;;0.90;;
51995;SDS011;38010;53.264;6.592;2023-04-07T04:39:46;0.80;;;0.80;;
51995;SDS011;38010;53.264;6.592;2023-04-07T04:42:12;1.00;;;0.90;;
51995;SDS011;38010;53.264;6.592;2023-04-07T04:44:37;1.13;;;0.98;;
51995;SDS011;38010;53.264;6.592;2023-04-07T04:47:03;1.50;;;0.98;;
51995;SDS011;38010;53.264;6.592;2023-04-07T04:49:29;1.30;;;1.00;;
51995;SDS011;38010;53.264;6.592;2023-04-07T04:51:55;1.08;;;0.90;;
51995;SDS011;38010;53.264;6.592;2023-04-07T04:54:21;0.93;;;0.80;;
51995;SDS011;38010;53.264;6.592;2023-04-07T04:56:46;1.45;;;1.02;;
51995;SDS011;38010;53.264;6.592;2023-04-07T04:59:12;0.93;;;0.75;;
51995;SDS011;38010;53.264;6.592;2023-04-07T05:01:38;1.15;;;0.88;;
51995;SDS011;38010;53.264;6.592;2023-04-07T05:04:03;1.02;;;0.93;;
51995;SDS011;38010;53.264;6.592;2023-04-07T05:06:29;0.80;;;0.80;;
51995;SDS011;38010;53.264;6.592;2023-04-07T05:08:55;0.93;;;0.90;;
51995;SDS011;38010;53.264;6.592;2023-04-07T05:11:21;1.13;;;1.02;;
51995;SDS011;38010;53.264;6.592;2023-04-07T05:13:46;1.73;;;1.10;;
51995;SDS011;38010;53.264;6.592;2023-04-07T05:16:12;1.45;;;1.00;;
51995;SDS011;38010;53.264;6.592;2023-04-07T05:18:38;1.20;;;1.10;;
51995;SDS011;38010;53.264;6.592;2023-04-07T05:21:03;1.02;;;0.93;;
51995;SDS011;38010;53.264;6.592;2023-04-07T05:23:29;0.93;;;0.85;;
51995;SDS011;38010;53.264;6.592;2023-04-07T05:25:55;0.90;;;0.80;;
51995;SDS011;38010;53.264;6.592;2023-04-07T05:28:21;1.00;;;0.90;;
51995;SDS011;38010;53.264;6.592;2023-04-07T05:30:46;1.13;;;0.88;;
51995;SDS011;38010;53.264;6.592;2023-04-07T05:33:12;0.98;;;0.90;;
51995;SDS011;38010;53.264;6.592;2023-04-07T05:35:38;1.00;;;0.90;;
51995;SDS011;38010;53.264;6.592;2023-04-07T05:38:04;1.15;;;0.98;;
51995;SDS011;38010;53.264;6.592;2023-04-07T05:40:30;0.88;;;0.88;;
51995;SDS011;38010;53.264;6.592;2023-04-07T05:42:56;1.30;;;1.05;;
51995;SDS011;38010;53.264;6.592;2023-04-07T05:45:22;0.93;;;0.90;;
51995;SDS011;38010;53.264;6.592;2023-04-07T05:47:47;1.13;;;0.90;;
51995;SDS011;38010;53.264;6.592;2023-04-07T05:50:15;1.20;;;0.93;;
51995;SDS011;38010;53.264;6.592;2023-04-07T05:52:41;1.45;;;0.95;;
51995;SDS011;38010;53.264;6.592;2023-04-07T05:55:07;0.80;;;0.80;;
51995;SDS011;38010;53.264;6.592;2023-04-07T05:57:33;0.93;;;0.88;;
51995;SDS011;38010;53.264;6.592;2023-04-07T05:59:59;1.08;;;0.93;;
51995;SDS011;38010;53.264;6.592;2023-04-07T06:02:25;0.90;;;0.85;;
51995;SDS011;38010;53.264;6.592;2023-04-07T06:04:51;1.30;;;1.20;;
51995;SDS011;38010;53.264;6.592;2023-04-07T06:07:16;0.80;;;0.80;;
51995;SDS011;38010;53.264;6.592;2023-04-07T06:09:42;1.00;;;0.90;;
51995;SDS011;38010;53.264;6.592;2023-04-07T06:12:08;0.93;;;0.90;;
51995;SDS011;38010;53.264;6.592;2023-04-07T06:14:36;0.68;;;0.68;;
51995;SDS011;38010;53.264;6.592;2023-04-07T06:17:02;1.15;;;1.00;;
51995;SDS011;38010;53.264;6.592;2023-04-07T06:19:27;0.80;;;0.80;;
51995;SDS011;38010;53.264;6.592;2023-04-07T06:21:53;1.08;;;0.93;;
51995;SDS011;38010;53.264;6.592;2023-04-07T06:24:19;1.08;;;0.98;;
51995;SDS011;38010;53.264;6.592;2023-04-07T06:26:49;0.95;;;0.88;;
51995;SDS011;38010;53.264;6.592;2023-04-07T06:29:16;2.17;;;0.90;;
51995;SDS011;38010;53.264;6.592;2023-04-07T06:31:42;1.08;;;1.00;;
51995;SDS011;38010;53.264;6.592;2023-04-07T06:34:07;1.92;;;1.05;;
51995;SDS011;38010;53.264;6.592;2023-04-07T06:36:33;1.08;;;0.80;;
51995;SDS011;38010;53.264;6.592;2023-04-07T06:38:59;1.15;;;0.88;;
51995;SDS011;38010;53.264;6.592;2023-04-07T06:41:25;0.80;;;0.80;;
51995;SDS011;38010;53.264;6.592;2023-04-07T06:43:51;1.67;;;1.10;;
51995;SDS011;38010;53.264;6.592;2023-04-07T06:46:17;0.88;;;0.80;;
51995;SDS011;38010;53.264;6.592;2023-04-07T06:48:43;1.13;;;1.02;;
51995;SDS011;38010;53.264;6.592;2023-04-07T06:51:09;1.48;;;1.00;;
51995;SDS011;38010;53.264;6.592;2023-04-07T06:53:35;1.15;;;1.05;;
51995;SDS011;38010;53.264;6.592;2023-04-07T06:58:30;0.80;;;0.70;;
51995;SDS011;38010;53.264;6.592;2023-04-07T07:00:56;1.08;;;0.90;;
51995;SDS011;38010;53.264;6.592;2023-04-07T07:03:22;0.80;;;0.80;;
51995;SDS011;38010;53.264;6.592;2023-04-07T07:05:47;1.40;;;1.00;;
51995;SDS011;38010;53.264;6.592;2023-04-07T07:08:13;0.80;;;0.80;;
51995;SDS011;38010;53.264;6.592;2023-04-07T07:10:39;1.23;;;1.05;;
51995;SDS011;38010;53.264;6.592;2023-04-07T07:13:05;0.82;;;0.82;;
51995;SDS011;38010;53.264;6.592;2023-04-07T07:15:30;1.02;;;0.80;;
51995;SDS011;38010;53.264;6.592;2023-04-07T07:17:56;1.40;;;1.00;;
51995;SDS011;38010;53.264;6.592;2023-04-07T07:20:22;1.00;;;0.90;;
51995;SDS011;38010;53.264;6.592;2023-04-07T07:22:49;1.27;;;0.90;;
51995;SDS011;38010;53.264;6.592;2023-04-07T07:25:15;1.10;;;0.93;;
51995;SDS011;38010;53.264;6.592;2023-04-07T07:27:41;1.25;;;0.90;;
51995;SDS011;38010;53.264;6.592;2023-04-07T07:30:07;1.33;;;1.23;;
51995;SDS011;38010;53.264;6.592;2023-04-07T07:32:33;1.15;;;1.00;;
51995;SDS011;38010;53.264;6.592;2023-04-07T07:34:59;1.00;;;0.90;;
51995;SDS011;38010;53.264;6.592;2023-04-07T07:37:24;1.00;;;0.80;;
51995;SDS011;38010;53.264;6.592;2023-04-07T07:39:50;1.35;;;0.90;;
51995;SDS011;38010;53.264;6.592;2023-04-07T07:42:16;0.73;;;0.70;;
51995;SDS011;38010;53.264;6.592;2023-04-07T07:44:42;0.70;;;0.70;;
51995;SDS011;38010;53.264;6.592;2023-04-07T07:47:08;1.42;;;0.90;;
51995;SDS011;38010;53.264;6.592;2023-04-07T07:49:33;1.00;;;0.88;;
51995;SDS011;38010;53.264;6.592;2023-04-07T07:51:59;1.02;;;0.82;;
51995;SDS011;38010;53.264;6.592;2023-04-07T07:54:25;1.00;;;0.90;;
51995;SDS011;38010;53.264;6.592;2023-04-07T07:56:50;1.50;;;1.00;;
51995;SDS011;38010;53.264;6.592;2023-04-07T07:59:16;1.13;;;1.00;;
51995;SDS011;38010;53.264;6.592;2023-04-07T08:01:42;0.80;;;0.75;;
51995;SDS011;38010;53.264;6.592;2023-04-07T08:04:08;1.00;;;0.90;;
51995;SDS011;38010;53.264;6.592;2023-04-07T08:06:33;1.08;;;0.82;;
51995;SDS011;38010;53.264;6.592;2023-04-07T08:09:00;0.98;;;0.88;;
51995;SDS011;38010;53.264;6.592;2023-04-07T08:11:26;1.10;;;0.90;;
51995;SDS011;38010;53.264;6.592;2023-04-07T08:13:52;0.77;;;0.77;;
51995;SDS011;38010;53.264;6.592;2023-04-07T08:16:18;1.00;;;0.90;;
51995;SDS011;38010;53.264;6.592;2023-04-07T08:18:45;0.73;;;0.73;;
51995;SDS011;38010;53.264;6.592;2023-04-07T08:21:11;1.33;;;0.82;;
51995;SDS011;38010;53.264;6.592;2023-04-07T08:23:37;1.10;;;0.85;;
51995;SDS011;38010;53.264;6.592;2023-04-07T08:26:02;1.10;;;1.00;;
51995;SDS011;38010;53.264;6.592;2023-04-07T08:28:28;0.88;;;0.80;;
51995;SDS011;38010;53.264;6.592;2023-04-07T08:30:54;1.17;;;0.90;;
51995;SDS011;38010;53.264;6.592;2023-04-07T08:33:19;0.73;;;0.73;;
51995;SDS011;38010;53.264;6.592;2023-04-07T08:35:45;1.65;;;0.95;;
51995;SDS011;38010;53.264;6.592;2023-04-07T08:38:11;1.02;;;0.93;;
51995;SDS011;38010;53.264;6.592;2023-04-07T08:40:37;1.35;;;0.90;;
51995;SDS011;38010;53.264;6.592;2023-04-07T08:43:07;1.10;;;1.00;;
51995;SDS011;38010;53.264;6.592;2023-04-07T08:45:35;1.20;;;0.93;;
51995;SDS011;38010;53.264;6.592;2023-04-07T08:48:03;1.08;;;0.80;;
51995;SDS011;38010;53.264;6.592;2023-04-07T08:50:38;1.30;;;1.02;;
51995;SDS011;38010;53.264;6.592;2023-04-07T08:53:06;1.40;;;1.08;;
51995;SDS011;38010;53.264;6.592;2023-04-07T08:55:34;1.00;;;0.85;;
51995;SDS011;38010;53.264;6.592;2023-04-07T08:58:00;1.63;;;1.08;;
51995;SDS011;38010;53.264;6.592;2023-04-07T09:00:27;0.80;;;0.80;;
51995;SDS011;38010;53.264;6.592;2023-04-07T09:02:53;1.25;;;1.10;;
51995;SDS011;38010;53.264;6.592;2023-04-07T09:05:20;1.10;;;1.00;;
51995;SDS011;38010;53.264;6.592;2023-04-07T09:07:49;1.35;;;1.20;;
51995;SDS011;38010;53.264;6.592;2023-04-07T09:10:14;1.55;;;1.08;;
51995;SDS011;38010;53.264;6.592;2023-04-07T09:12:41;1.13;;;1.02;;
51995;SDS011;38010;53.264;6.592;2023-04-07T09:15:07;1.02;;;0.90;;
51995;SDS011;38010;53.264;6.592;2023-04-07T09:17:33;1.13;;;0.90;;
51995;SDS011;38010;53.264;6.592;2023-04-07T09:19:59;1.30;;;1.17;;
51995;SDS011;38010;53.264;6.592;2023-04-07T09:22:35;1.10;;;0.90;;
51995;SDS011;38010;53.264;6.592;2023-04-07T09:25:13;1.40;;;1.30;;
51995;SDS011;38010;53.264;6.592;2023-04-07T09:27:52;1.08;;;0.95;;
51995;SDS011;38010;53.264;6.592;2023-04-07T09:30:28;1.65;;;0.95;;
51995;SDS011;38010;53.264;6.592;2023-04-07T09:32:56;1.63;;;1.00;;
51995;SDS011;38010;53.264;6.592;2023-04-07T09:35:23;1.33;;;1.23;;
51995;SDS011;38010;53.264;6.592;2023-04-07T09:38:07;1.60;;;1.20;;
51995;SDS011;38010;53.264;6.592;2023-04-07T09:40:34;2.53;;;1.60;;
51995;SDS011;38010;53.264;6.592;2023-04-07T09:43:02;1.63;;;1.30;;
51995;SDS011;38010;53.264;6.592;2023-04-07T09:45:28;1.30;;;1.13;;
51995;SDS011;38010;53.264;6.592;2023-04-07T09:47:59;1.55;;;1.45;;
51995;SDS011;38010;53.264;6.592;2023-04-07T09:50:33;1.52;;;1.10;;
51995;SDS011;38010;53.264;6.592;2023-04-07T09:53:09;1.40;;;1.20;;
51995;SDS011;38010;53.264;6.592;2023-04-07T09:55:35;1.67;;;1.27;;
51995;SDS011;38010;53.264;6.592;2023-04-07T09:58:03;1.77;;;1.33;;
51995;SDS011;38010;53.264;6.592;2023-04-07T10:00:30;1.85;;;1.30;;
51995;SDS011;38010;53.264;6.592;2023-04-07T10:02:56;2.78;;;1.60;;
51995;SDS011;38010;53.264;6.592;2023-04-07T10:05:22;2.75;;;1.73;;
51995;SDS011;38010;53.264;6.592;2023-04-07T10:07:49;2.83;;;1.38;;
51995;SDS011;38010;53.264;6.592;2023-04-07T10:10:15;3.40;;;2.00;;
51995;SDS011;38010;53.264;6.592;2023-04-07T10:12:41;3.40;;;1.65;;
51995;SDS011;38010;53.264;6.592;2023-04-07T10:15:10;1.95;;;1.60;;
51995;SDS011;38010;53.264;6.592;2023-04-07T10:17:39;2.20;;;1.58;;
51995;SDS011;38010;53.264;6.592;2023-04-07T10:20:09;2.55;;;1.75;;
51995;SDS011;38010;53.264;6.592;2023-04-07T10:22:35;2.78;;;1.90;;
51995;SDS011;38010;53.264;6.592;2023-04-07T10:25:05;2.55;;;1.60;;
51995;SDS011;38010;53.264;6.592;2023-04-07T10:27:46;1.88;;;1.58;;
51995;SDS011;38010;53.264;6.592;2023-04-07T10:30:17;2.50;;;1.73;;
51995;SDS011;38010;53.264;6.592;2023-04-07T10:32:49;1.70;;;1.60;;
51995;SDS011;38010;53.264;6.592;2023-04-07T10:35:16;2.25;;;1.90;;
51995;SDS011;38010;53.264;6.592;2023-04-07T10:40:37;2.47;;;1.65;;
51995;SDS011;38010;53.264;6.592;2023-04-07T10:43:04;3.35;;;1.73;;
51995;SDS011;38010;53.264;6.592;2023-04-07T10:48:10;2.28;;;1.95;;
51995;SDS011;38010;53.264;6.592;2023-04-07T10:50:37;2.60;;;1.98;;
51995;SDS011;38010;53.264;6.592;2023-04-07T10:53:04;2.25;;;1.88;;
51995;SDS011;38010;53.264;6.592;2023-04-07T10:55:44;2.10;;;1.63;;
51995;SDS011;38010;53.264;6.592;2023-04-07T10:58:14;3.55;;;2.20;;
51995;SDS011;38010;53.264;6.592;2023-04-07T11:03:39;2.25;;;1.70;;
51995;SDS011;38010;53.264;6.592;2023-04-07T11:08:36;3.80;;;2.15;;
51995;SDS011;38010;53.264;6.592;2023-04-07T11:11:03;3.38;;;2.05;;
51995;SDS011;38010;53.264;6.592;2023-04-07T11:13:39;3.75;;;2.08;;
51995;SDS011;38010;53.264;6.592;2023-04-07T11:16:10;4.07;;;2.13;;
51995;SDS011;38010;53.264;6.592;2023-04-07T11:18:36;3.10;;;1.70;;
51995;SDS011;38010;53.264;6.592;2023-04-07T11:21:03;2.13;;;1.92;;
51995;SDS011;38010;53.264;6.592;2023-04-07T11:23:42;2.35;;;1.95;;
51995;SDS011;38010;53.264;6.592;2023-04-07T11:26:09;2.80;;;1.70;;
51995;SDS011;38010;53.264;6.592;2023-04-07T11:28:46;4.88;;;1.92;;
51995;SDS011;38010;53.264;6.592;2023-04-07T11:33:50;2.90;;;1.98;;
51995;SDS011;38010;53.264;6.592;2023-04-07T11:36:33;2.90;;;2.08;;
51995;SDS011;38010;53.264;6.592;2023-04-07T11:39:02;2.42;;;1.80;;
51995;SDS011;38010;53.264;6.592;2023-04-07T11:41:29;2.40;;;1.75;;
51995;SDS011;38010;53.264;6.592;2023-04-07T11:44:03;2.00;;;1.48;;
51995;SDS011;38010;53.264;6.592;2023-04-07T11:46:29;2.60;;;1.70;;
51995;SDS011;38010;53.264;6.592;2023-04-07T11:48:55;2.10;;;1.55;;
51995;SDS011;38010;53.264;6.592;2023-04-07T11:51:33;2.33;;;1.65;;
51995;SDS011;38010;53.264;6.592;2023-04-07T11:53:59;1.90;;;1.50;;
51995;SDS011;38010;53.264;6.592;2023-04-07T11:56:25;1.85;;;1.20;;
51995;SDS011;38010;53.264;6.592;2023-04-07T11:58:53;3.15;;;1.55;;
51995;SDS011;38010;53.264;6.592;2023-04-07T12:01:20;3.08;;;2.00;;
51995;SDS011;38010;53.264;6.592;2023-04-07T12:06:35;2.13;;;1.67;;
51995;SDS011;38010;53.264;6.592;2023-04-07T12:09:05;2.22;;;1.70;;
51995;SDS011;38010;53.264;6.592;2023-04-07T12:11:33;1.60;;;1.40;;
51995;SDS011;38010;53.264;6.592;2023-04-07T12:14:00;1.75;;;1.50;;
51995;SDS011;38010;53.264;6.592;2023-04-07T12:16:29;2.13;;;1.75;;
51995;SDS011;38010;53.264;6.592;2023-04-07T12:18:55;1.50;;;1.38;;
51995;SDS011;38010;53.264;6.592;2023-04-07T12:21:21;2.05;;;1.63;;
51995;SDS011;38010;53.264;6.592;2023-04-07T12:23:49;1.98;;;1.60;;
51995;SDS011;38010;53.264;6.592;2023-04-07T12:26:15;1.92;;;1.50;;
51995;SDS011;38010;53.264;6.592;2023-04-07T12:28:41;2.00;;;1.60;;
51995;SDS011;38010;53.264;6.592;2023-04-07T12:31:08;1.48;;;1.38;;
51995;SDS011;38010;53.264;6.592;2023-04-07T12:33:34;2.10;;;1.50;;
51995;SDS011;38010;53.264;6.592;2023-04-07T12:36:00;1.90;;;1.63;;
51995;SDS011;38010;53.264;6.592;2023-04-07T12:38:25;2.55;;;1.40;;
51995;SDS011;38010;53.264;6.592;2023-04-07T12:40:52;1.80;;;1.58;;
51995;SDS011;38010;53.264;6.592;2023-04-07T12:43:18;2.00;;;1.50;;
51995;SDS011;38010;53.264;6.592;2023-04-07T12:45:44;2.40;;;1.52;;
51995;SDS011;38010;53.264;6.592;2023-04-07T12:48:10;1.48;;;1.33;;
51995;SDS011;38010;53.264;6.592;2023-04-07T12:50:36;2.13;;;1.83;;
51995;SDS011;38010;53.264;6.592;2023-04-07T12:53:02;3.45;;;2.33;;
51995;SDS011;38010;53.264;6.592;2023-04-07T12:55:29;2.10;;;1.90;;
51995;SDS011;38010;53.264;6.592;2023-04-07T12:57:57;2.40;;;1.50;;
51995;SDS011;38010;53.264;6.592;2023-04-07T13:00:24;1.63;;;1.38;;
51995;SDS011;38010;53.264;6.592;2023-04-07T13:02:50;1.73;;;1.30;;
51995;SDS011;38010;53.264;6.592;2023-04-07T13:05:15;2.72;;;1.42;;
51995;SDS011;38010;53.264;6.592;2023-04-07T13:07:42;1.77;;;1.60;;
51995;SDS011;38010;53.264;6.592;2023-04-07T13:10:08;1.45;;;1.35;;
51995;SDS011;38010;53.264;6.592;2023-04-07T13:12:35;2.35;;;1.77;;
51995;SDS011;38010;53.264;6.592;2023-04-07T13:15:03;2.08;;;1.63;;
51995;SDS011;38010;53.264;6.592;2023-04-07T13:17:30;1.65;;;1.55;;
51995;SDS011;38010;53.264;6.592;2023-04-07T13:19:56;1.50;;;1.30;;
51995;SDS011;38010;53.264;6.592;2023-04-07T13:22:21;2.55;;;1.50;;
51995;SDS011;38010;53.264;6.592;2023-04-07T13:24:48;1.63;;;1.30;;
51995;SDS011;38010;53.264;6.592;2023-04-07T13:27:13;2.22;;;1.65;;
51995;SDS011;38010;53.264;6.592;2023-04-07T13:29:39;2.03;;;1.30;;
51995;SDS011;38010;53.264;6.592;2023-04-07T13:34:31;1.58;;;1.42;;
51995;SDS011;38010;53.264;6.592;2023-04-07T13:36:59;4.03;;;1.40;;
51995;SDS011;38010;53.264;6.592;2023-04-07T13:39:26;1.40;;;1.25;;
51995;SDS011;38010;53.264;6.592;2023-04-07T13:41:51;1.38;;;1.27;;
51995;SDS011;38010;53.264;6.592;2023-04-07T13:44:17;2.35;;;1.52;;
51995;SDS011;38010;53.264;6.592;2023-04-07T13:46:43;1.52;;;1.20;;
51995;SDS011;38010;53.264;6.592;2023-04-07T13:49:08;1.52;;;1.20;;
51995;SDS011;38010;53.264;6.592;2023-04-07T13:51:34;1.45;;;1.20;;
51995;SDS011;38010;53.264;6.592;2023-04-07T13:54:00;1.50;;;1.40;;
51995;SDS011;38010;53.264;6.592;2023-04-07T13:56:26;1.77;;;1.67;;
51995;SDS011;38010;53.264;6.592;2023-04-07T13:58:52;1.27;;;1.17;;
51995;SDS011;38010;53.264;6.592;2023-04-07T14:01:18;1.30;;;1.13;;
51995;SDS011;38010;53.264;6.592;2023-04-07T14:03:44;1.55;;;1.30;;
51995;SDS011;38010;53.264;6.592;2023-04-07T14:06:11;1.73;;;1.40;;
51995;SDS011;38010;53.264;6.592;2023-04-07T14:08:37;2.15;;;1.30;;
51995;SDS011;38010;53.264;6.592;2023-04-07T14:11:03;2.67;;;1.55;;
51995;SDS011;38010;53.264;6.592;2023-04-07T14:13:29;2.10;;;1.52;;
51995;SDS011;38010;53.264;6.592;2023-04-07T14:15:55;1.63;;;1.25;;
51995;SDS011;38010;53.264;6.592;2023-04-07T14:18:20;1.92;;;1.20;;
51995;SDS011;38010;53.264;6.592;2023-04-07T14:20:47;1.73;;;1.35;;
51995;SDS011;38010;53.264;6.592;2023-04-07T14:23:13;2.10;;;1.80;;
51995;SDS011;38010;53.264;6.592;2023-04-07T14:25:39;1.63;;;1.23;;
51995;SDS011;38010;53.264;6.592;2023-04-07T14:28:05;2.55;;;1.30;;
51995;SDS011;38010;53.264;6.592;2023-04-07T14:30:34;1.70;;;1.38;;
51995;SDS011;38010;53.264;6.592;2023-04-07T14:33:02;1.35;;;1.20;;
51995;SDS011;38010;53.264;6.592;2023-04-07T14:35:29;1.55;;;1.42;;
51995;SDS011;38010;53.264;6.592;2023-04-07T14:37:54;2.15;;;1.20;;
51995;SDS011;38010;53.264;6.592;2023-04-07T14:40:20;1.77;;;1.40;;
51995;SDS011;38010;53.264;6.592;2023-04-07T14:42:46;1.48;;;1.38;;
51995;SDS011;38010;53.264;6.592;2023-04-07T14:45:12;1.85;;;1.20;;
51995;SDS011;38010;53.264;6.592;2023-04-07T14:47:39;1.35;;;1.25;;
51995;SDS011;38010;53.264;6.592;2023-04-07T14:50:05;1.52;;;1.40;;
51995;SDS011;38010;53.264;6.592;2023-04-07T14:52:31;2.08;;;1.05;;
51995;SDS011;38010;53.264;6.592;2023-04-07T14:54:57;1.80;;;1.30;;
51995;SDS011;38010;53.264;6.592;2023-04-07T14:57:24;1.73;;;1.33;;
51995;SDS011;38010;53.264;6.592;2023-04-07T14:59:50;1.35;;;1.00;;
51995;SDS011;38010;53.264;6.592;2023-04-07T15:02:16;2.03;;;1.25;;
51995;SDS011;38010;53.264;6.592;2023-04-07T15:04:42;1.58;;;1.27;;
51995;SDS011;38010;53.264;6.592;2023-04-07T15:07:08;1.23;;;1.13;;
51995;SDS011;38010;53.264;6.592;2023-04-07T15:09:34;1.35;;;1.20;;
51995;SDS011;38010;53.264;6.592;2023-04-07T15:12:00;1.50;;;1.08;;